Time;durP1;ratioP1;P1;durP2;ratioP2;P2;SDS_P1;SDS_P2;PMS_P1;PMS_P2;Temp;Humidity;BMP_temperature;BMP_pressure;BME280_temperature;BME280_humidity;BME280_pressure;Samples;Min_cycle;Max_cycle;Signal;HPM_P1;HPM_P2
2021/05/13 00:01:22;;;;;;;4.38;1.80;;;17.70;63.00;;;;;;6158679;23;20014;-74
2021/05/13 00:03:52;;;;;;;3.55;1.20;;;17.70;63.00;;;;;;6168577;23;20013;-74
2021/05/13 00:06:18;;;;;;;4.70;1.60;;;17.70;63.00;;;;;;6168350;23;20028;-74
2021/05/13 00:08:45;;;;;;;3.55;1.40;;;17.70;63.00;;;;;;6158918;23;20017;-74
2021/05/13 00:11:12;;;;;;;3.88;1.50;;;17.70;63.00;;;;;;6158328;23;20021;-74
2021/05/13 00:13:40;;;;;;;4.30;1.67;;;17.70;63.00;;;;;;6168086;23;20014;-74
2021/05/13 00:16:07;;;;;;;5.07;1.38;;;17.70;63.10;;;;;;6168244;23;20013;-74
2021/05/13 00:18:34;;;;;;;4.70;1.70;;;17.70;63.00;;;;;;6159277;23;20098;-74
2021/05/13 00:21:01;;;;;;;5.63;1.77;;;17.70;63.00;;;;;;6158866;23;20009;-74
2021/05/13 00:23:27;;;;;;;5.13;1.40;;;17.60;63.00;;;;;;6168250;23;20040;-74
2021/05/13 00:25:53;;;;;;;4.85;1.40;;;17.70;63.00;;;;;;6158553;23;20035;-74
2021/05/13 00:28:21;;;;;;;4.45;1.38;;;17.70;63.00;;;;;;6168235;23;20490;-74
2021/05/13 00:30:48;;;;;;;7.43;1.88;;;17.70;62.90;;;;;;6167774;23;20466;-74
2021/05/13 00:33:14;;;;;;;4.28;1.25;;;17.60;62.90;;;;;;6158312;23;20285;-74
2021/05/13 00:35:40;;;;;;;5.60;1.38;;;17.60;62.90;;;;;;6168012;23;20010;-74
2021/05/13 00:38:06;;;;;;;3.25;1.33;;;17.60;62.90;;;;;;6168059;23;20020;-74
2021/05/13 00:40:36;;;;;;;5.50;1.45;;;17.70;62.90;;;;;;6159107;23;20022;-74
2021/05/13 00:43:03;;;;;;;3.53;1.20;;;17.70;62.90;;;;;;6163738;23;20005;-74
2021/05/13 00:45:29;;;;;;;3.72;1.00;;;17.70;62.90;;;;;;6157797;23;20343;-74
2021/05/13 00:50:21;;;;;;;4.07;1.48;;;17.60;62.90;;;;;;6168331;23;20078;-74
2021/05/13 00:52:48;;;;;;;5.40;1.60;;;17.60;62.90;;;;;;6159746;23;20432;-74
2021/05/13 00:55:16;;;;;;;4.75;1.40;;;17.60;62.90;;;;;;6158343;23;20017;-74
2021/05/13 00:57:45;;;;;;;3.40;1.55;;;17.60;62.90;;;;;;6167678;23;20089;-74
2021/05/13 01:02:57;;;;;;;3.72;1.52;;;17.60;62.80;;;;;;6168181;23;20283;-74
2021/05/13 01:05:25;;;;;;;4.65;1.60;;;17.60;62.80;;;;;;6158073;23;20155;-74
2021/05/13 01:07:51;;;;;;;4.13;1.30;;;17.60;62.90;;;;;;6168541;23;20014;-74
2021/05/13 01:10:20;;;;;;;3.75;1.27;;;17.60;62.80;;;;;;6166738;23;20009;-74
2021/05/13 01:12:47;;;;;;;2.65;1.80;;;17.60;62.90;;;;;;6167504;23;20331;-74
2021/05/13 01:15:29;;;;;;;5.78;1.45;;;17.60;62.90;;;;;;6158060;23;20013;-74
2021/05/13 01:20:56;;;;;;;6.72;1.85;;;17.60;62.90;;;;;;6068203;23;20107;-74
2021/05/13 01:23:22;;;;;;;4.93;1.63;;;17.50;62.80;;;;;;6141159;23;20485;-74
2021/05/13 01:25:51;;;;;;;4.53;1.40;;;17.50;62.80;;;;;;6167442;23;20009;-74
2021/05/13 01:28:18;;;;;;;3.30;1.35;;;17.60;62.90;;;;;;6167975;23;20020;-74
2021/05/13 01:30:50;;;;;;;3.33;1.75;;;17.50;62.80;;;;;;6167775;23;20041;-74
2021/05/13 01:33:21;;;;;;;4.32;1.30;;;17.60;62.80;;;;;;6157808;23;20014;-74
2021/05/13 01:35:48;;;;;;;3.70;1.75;;;17.50;62.70;;;;;;6167301;23;20315;-74
2021/05/13 01:38:16;;;;;;;4.57;1.38;;;17.50;62.80;;;;;;6167387;23;20295;-74
2021/05/13 01:41:00;;;;;;;4.28;1.65;;;17.60;62.90;;;;;;6167633;23;20032;-74
2021/05/13 01:43:28;;;;;;;4.00;1.48;;;17.60;62.80;;;;;;6157996;23;20020;-74
2021/05/13 01:45:55;;;;;;;3.63;1.42;;;17.50;62.80;;;;;;6158508;23;20040;-74
2021/05/13 01:48:21;;;;;;;4.72;1.50;;;17.50;62.80;;;;;;6167243;23;20354;-74
2021/05/13 01:50:49;;;;;;;3.67;1.13;;;17.50;62.80;;;;;;6167473;23;20020;-74
2021/05/13 01:53:15;;;;;;;4.65;1.20;;;17.50;62.80;;;;;;6157834;23;20056;-74
2021/05/13 01:55:42;;;;;;;4.45;1.35;;;17.50;62.80;;;;;;6157435;23;20404;-74
2021/05/13 01:58:08;;;;;;;5.03;1.10;;;17.50;62.80;;;;;;6158648;23;20014;-74
2021/05/13 02:00:34;;;;;;;4.15;1.33;;;17.50;62.80;;;;;;6132406;23;20020;-74
2021/05/13 02:03:01;;;;;;;3.20;1.35;;;17.50;62.80;;;;;;6157892;23;20013;-74
2021/05/13 02:05:27;;;;;;;4.43;1.30;;;17.50;62.80;;;;;;6168313;23;20021;-74
2021/05/13 02:07:53;;;;;;;4.15;1.33;;;17.50;62.80;;;;;;6167227;23;20017;-74
2021/05/13 02:10:19;;;;;;;3.33;1.50;;;17.50;62.80;;;;;;6159830;23;20028;-74
2021/05/13 02:12:45;;;;;;;3.85;1.50;;;17.40;63.50;;;;;;6169297;23;20010;-74
2021/05/13 02:15:14;;;;;;;2.88;1.20;;;17.50;62.80;;;;;;6159434;23;20037;-74
2021/05/13 02:17:40;;;;;;;3.17;1.33;;;17.50;62.80;;;;;;6169981;23;20089;-74
2021/05/13 02:20:09;;;;;;;3.53;1.48;;;17.50;62.80;;;;;;6159542;23;20025;-74
2021/05/13 02:22:35;;;;;;;7.10;1.65;;;17.50;62.70;;;;;;6169526;23;20033;-74
2021/05/13 02:25:01;;;;;;;3.83;1.05;;;17.40;62.70;;;;;;6159254;23;20303;-74
2021/05/13 02:27:27;;;;;;;2.92;1.00;;;17.50;62.70;;;;;;6159988;23;20047;-74
2021/05/13 02:29:52;;;;;;;3.15;1.17;;;17.50;62.70;;;;;;6169311;23;20009;-74
2021/05/13 02:32:18;;;;;;;4.53;1.45;;;17.50;62.70;;;;;;6169841;23;20033;-74
2021/05/13 02:34:44;;;;;;;3.30;1.35;;;17.50;62.70;;;;;;6159506;23;20068;-73
2021/05/13 02:37:10;;;;;;;4.13;1.40;;;17.40;62.70;;;;;;6169142;23;20080;-74
2021/05/13 02:39:36;;;;;;;3.60;1.30;;;17.40;62.70;;;;;;6169434;23;20081;-74
2021/05/13 02:42:02;;;;;;;3.47;1.15;;;17.40;62.70;;;;;;6160017;23;20013;-74
2021/05/13 02:44:28;;;;;;;4.38;1.58;;;17.40;63.30;;;;;;6159138;23;20032;-74
2021/05/13 02:46:54;;;;;;;3.65;1.08;;;17.40;62.70;;;;;;6143904;23;20088;-74
2021/05/13 02:49:21;;;;;;;4.10;1.15;;;17.40;62.70;;;;;;6159266;23;20401;-74
2021/05/13 02:51:47;;;;;;;2.95;1.00;;;17.40;62.70;;;;;;6158941;23;20044;-74
2021/05/13 02:54:12;;;;;;;3.30;1.10;;;17.40;62.70;;;;;;6159062;23;20017;-74
2021/05/13 02:56:38;;;;;;;2.67;1.30;;;17.40;62.70;;;;;;6168938;23;20017;-74
2021/05/13 02:59:05;;;;;;;3.45;1.08;;;17.40;62.70;;;;;;6169522;23;20023;-74
2021/05/13 03:01:30;;;;;;;3.47;1.05;;;17.40;62.70;;;;;;6168861;23;20096;-74
2021/05/13 03:03:58;;;;;;;4.20;1.48;;;17.40;62.70;;;;;;6168831;23;20442;-74
2021/05/13 03:06:26;;;;;;;3.50;1.23;;;17.40;62.70;;;;;;6158915;23;20415;-74
2021/05/13 03:08:54;;;;;;;2.45;0.95;;;17.40;62.70;;;;;;6159141;23;20079;-74
2021/05/13 03:11:25;;;;;;;3.03;1.10;;;17.40;62.70;;;;;;6169096;23;20040;-74
2021/05/13 03:13:55;;;;;;;4.40;1.60;;;17.40;62.70;;;;;;6168745;23;20013;-74
2021/05/13 03:16:21;;;;;;;3.60;1.35;;;17.40;62.70;;;;;;6158824;23;20017;-74
2021/05/13 03:18:52;;;;;;;3.60;1.17;;;17.40;62.70;;;;;;6168398;23;20354;-74
2021/05/13 03:21:30;;;;;;;1.85;0.80;;;17.30;62.60;;;;;;6168429;23;20347;-73
2021/05/13 03:24:07;;;;;;;2.35;1.10;;;17.30;62.60;;;;;;6168572;23;20017;-74
2021/05/13 03:26:44;;;;;;;3.42;1.00;;;17.40;62.70;;;;;;6168758;23;20084;-74
2021/05/13 03:29:10;;;;;;;4.55;1.27;;;17.30;62.60;;;;;;6169340;23;20009;-74
2021/05/13 03:31:36;;;;;;;2.85;1.20;;;17.30;62.60;;;;;;6168658;23;20084;-74
2021/05/13 03:34:02;;;;;;;2.60;1.00;;;17.30;62.60;;;;;;6158619;23;20013;-74
2021/05/13 03:36:31;;;;;;;2.30;0.93;;;17.30;62.60;;;;;;6159263;23;20014;-74
2021/05/13 03:38:57;;;;;;;3.22;0.98;;;17.30;62.70;;;;;;6168700;23;20292;-74
2021/05/13 03:41:23;;;;;;;3.00;1.23;;;17.30;62.60;;;;;;6168594;23;20441;-74
2021/05/13 03:43:49;;;;;;;4.40;1.17;;;17.30;62.60;;;;;;6169157;23;20021;-74
2021/05/13 03:46:15;;;;;;;5.03;1.00;;;17.30;62.60;;;;;;6168224;23;20013;-74
2021/05/13 03:48:41;;;;;;;2.80;0.98;;;17.30;62.70;;;;;;6168959;23;20056;-74
2021/05/13 03:51:07;;;;;;;3.78;1.15;;;17.30;62.70;;;;;;6167774;23;20306;-74
2021/05/13 03:53:33;;;;;;;2.97;1.48;;;17.30;62.60;;;;;;6168477;23;20013;-74
2021/05/13 03:55:59;;;;;;;3.28;1.13;;;17.30;62.60;;;;;;6159051;23;20021;-74
2021/05/13 03:58:28;;;;;;;3.70;1.27;;;17.30;62.60;;;;;;6142455;23;20306;-75
2021/05/13 04:03:21;;;;;;;3.47;1.30;;;17.30;62.60;;;;;;6167843;23;20024;-74
2021/05/13 04:05:47;;;;;;;2.88;1.50;;;17.30;62.60;;;;;;6168367;23;20014;-74
2021/05/13 04:08:14;;;;;;;4.15;1.33;;;17.30;62.60;;;;;;6168314;23;20017;-74
2021/05/13 04:10:41;;;;;;;3.63;1.45;;;17.30;62.60;;;;;;6168689;23;20024;-74
2021/05/13 04:13:10;;;;;;;3.65;1.58;;;17.20;62.60;;;;;;6168861;23;20041;-74
2021/05/13 04:15:36;;;;;;;4.05;1.35;;;17.20;62.60;;;;;;6168478;23;20014;-74
2021/05/13 04:18:02;;;;;;;3.83;1.42;;;17.30;62.60;;;;;;6168175;23;20492;-74
2021/05/13 04:20:28;;;;;;;5.30;1.40;;;17.30;62.60;;;;;;6158579;23;20013;-74
2021/05/13 04:22:55;;;;;;;2.67;1.30;;;17.20;62.60;;;;;;6157786;23;20014;-74
2021/05/13 04:25:21;;;;;;;2.97;1.38;;;17.20;62.60;;;;;;6168636;23;20044;-74
2021/05/13 04:27:48;;;;;;;5.05;1.70;;;17.20;62.60;;;;;;6167776;23;20018;-74
2021/05/13 04:30:15;;;;;;;3.97;1.67;;;17.20;62.60;;;;;;6168865;23;20085;-74
2021/05/13 04:32:42;;;;;;;5.72;1.50;;;17.20;62.60;;;;;;6157784;23;20414;-74
2021/05/13 04:35:08;;;;;;;3.25;1.45;;;17.20;62.60;;;;;;6168638;23;20009;-74
2021/05/13 04:37:34;;;;;;;4.68;1.38;;;17.20;62.60;;;;;;6168428;23;20016;-74
2021/05/13 04:40:03;;;;;;;2.63;1.23;;;17.20;62.60;;;;;;6158053;23;20017;-74
2021/05/13 04:42:31;;;;;;;3.78;1.42;;;17.20;62.60;;;;;;6167911;23;20020;-74
2021/05/13 04:44:58;;;;;;;4.38;1.30;;;17.20;62.50;;;;;;6168368;23;20010;-74
2021/05/13 04:50:09;;;;;;;3.67;1.60;;;17.20;62.60;;;;;;6167586;23;20333;-74
2021/05/13 04:52:39;;;;;;;2.90;1.48;;;17.20;62.60;;;;;;6161100;23;20414;-74
2021/05/13 04:55:09;;;;;;;2.80;1.45;;;17.20;62.60;;;;;;6167620;23;20344;-74
2021/05/13 04:57:36;;;;;;;4.95;1.48;;;17.20;62.60;;;;;;6167883;23;20029;-74
2021/05/13 05:00:07;;;;;;;2.92;1.20;;;17.20;62.60;;;;;;6168471;23;20013;-74
2021/05/13 05:02:33;;;;;;;5.03;1.52;;;17.20;62.60;;;;;;6160365;23;20041;-74
2021/05/13 05:04:59;;;;;;;3.72;1.27;;;17.20;62.60;;;;;;6168514;23;20017;-74
2021/05/13 05:07:25;;;;;;;3.00;1.42;;;17.20;62.60;;;;;;6157577;23;20428;-74
2021/05/13 05:09:50;;;;;;;3.47;1.10;;;17.20;62.60;;;;;;6157868;23;20017;-74
2021/05/13 05:12:16;;;;;;;4.13;1.33;;;17.20;62.60;;;;;;6168088;23;20020;-74
2021/05/13 05:14:42;;;;;;;3.97;1.23;;;17.20;62.60;;;;;;6158012;23;20060;-74
2021/05/13 05:17:08;;;;;;;4.07;1.33;;;17.20;62.60;;;;;;6168388;23;20080;-74
2021/05/13 05:19:38;;;;;;;3.28;1.50;;;17.20;62.60;;;;;;6158113;23;20014;-74
2021/05/13 05:22:06;;;;;;;3.35;1.27;;;17.20;62.60;;;;;;6167643;23;20088;-74
2021/05/13 05:24:33;;;;;;;3.97;1.60;;;17.20;62.60;;;;;;6158190;23;20014;-74
2021/05/13 05:26:59;;;;;;;3.40;1.38;;;17.20;62.60;;;;;;6158343;23;20021;-74
2021/05/13 05:29:25;;;;;;;3.13;1.30;;;17.20;62.60;;;;;;6168323;23;20013;-74
2021/05/13 05:31:51;;;;;;;3.72;1.30;;;17.20;62.60;;;;;;6168403;23;20020;-74
2021/05/13 05:34:17;;;;;;;4.10;1.20;;;17.10;62.50;;;;;;6167735;23;20010;-74
2021/05/13 05:36:42;;;;;;;5.30;1.27;;;17.20;62.60;;;;;;6167716;23;20013;-74
2021/05/13 05:39:09;;;;;;;2.63;1.30;;;17.20;62.70;;;;;;6157679;23;20040;-74
2021/05/13 05:41:38;;;;;;;4.45;1.30;;;17.20;62.70;;;;;;6157713;23;20036;-74
2021/05/13 05:44:04;;;;;;;2.95;1.30;;;17.20;62.70;;;;;;6169554;23;20013;-74
2021/05/13 05:46:31;;;;;;;3.63;1.55;;;17.20;62.70;;;;;;6160748;23;20291;-74
2021/05/13 05:49:00;;;;;;;2.70;0.90;;;17.20;62.70;;;;;;6159668;23;20024;-74
2021/05/13 05:51:27;;;;;;;2.33;1.05;;;17.20;62.60;;;;;;6159705;23;20021;-74
2021/05/13 05:54:05;;;;;;;2.17;1.00;;;17.20;62.60;;;;;;6159576;23;20017;-74
2021/05/13 05:56:31;;;;;;;4.63;1.35;;;17.10;62.50;;;;;;6169651;23;20020;-74
2021/05/13 05:58:58;;;;;;;3.38;0.93;;;17.20;62.60;;;;;;6134551;23;20026;-74
2021/05/13 06:01:24;;;;;;;2.00;0.80;;;17.20;62.60;;;;;;6159795;23;20287;-74
2021/05/13 06:03:50;;;;;;;3.45;1.08;;;17.20;62.60;;;;;;6168936;23;20024;-74
2021/05/13 06:06:16;;;;;;;3.33;0.90;;;17.20;62.60;;;;;;6170129;23;20391;-74
2021/05/13 06:08:42;;;;;;;4.80;1.15;;;17.20;62.50;;;;;;6170046;23;20020;-74
2021/05/13 06:11:09;;;;;;;2.33;1.10;;;17.20;62.60;;;;;;6159462;23;20032;-74
2021/05/13 06:13:37;;;;;;;2.65;0.93;;;17.20;62.60;;;;;;6159673;23;20013;-74
2021/05/13 06:16:03;;;;;;;3.10;0.80;;;17.20;62.60;;;;;;6159703;23;20403;-74
2021/05/13 06:18:29;;;;;;;3.33;0.77;;;17.20;62.60;;;;;;6169591;23;20010;-74
2021/05/13 06:20:57;;;;;;;2.85;0.98;;;17.20;62.60;;;;;;6159369;23;20014;-75
2021/05/13 06:23:23;;;;;;;3.92;0.82;;;17.20;62.60;;;;;;6159823;23;20020;-74
2021/05/13 06:25:49;;;;;;;2.55;0.90;;;17.20;62.60;;;;;;6159367;23;20466;-74
2021/05/13 06:28:15;;;;;;;5.63;1.00;;;17.20;62.60;;;;;;6158369;23;20137;-74
2021/05/13 06:30:46;;;;;;;2.88;0.93;;;17.20;62.60;;;;;;6159234;23;20433;-74
2021/05/13 06:33:12;;;;;;;2.45;0.95;;;17.20;62.60;;;;;;6134780;23;20033;-74
2021/05/13 06:35:42;;;;;;;2.35;1.02;;;17.20;62.60;;;;;;6159452;23;20071;-74
2021/05/13 06:38:08;;;;;;;2.70;0.90;;;17.20;62.60;;;;;;6159228;23;20018;-73
2021/05/13 06:40:36;;;;;;;2.55;0.73;;;17.30;62.80;;;;;;6158950;23;20493;-74
2021/05/13 06:43:05;;;;;;;2.28;0.70;;;17.20;62.70;;;;;;6159060;23;20014;-74
2021/05/13 06:45:31;;;;;;;3.38;0.95;;;17.30;62.80;;;;;;6169139;23;20013;-74
2021/05/13 06:48:03;;;;;;;2.47;1.10;;;17.30;62.80;;;;;;6168730;23;20307;-74
2021/05/13 06:50:33;;;;;;;1.63;0.70;;;17.30;62.70;;;;;;6159101;23;20017;-74
2021/05/13 06:53:00;;;;;;;3.75;1.13;;;17.30;62.70;;;;;;6158707;23;20426;-74
2021/05/13 06:55:26;;;;;;;3.40;0.88;;;17.30;62.70;;;;;;6169041;23;20013;-74
2021/05/13 06:57:52;;;;;;;3.53;0.85;;;17.40;62.80;;;;;;6159416;23;20098;-74
2021/05/13 07:00:19;;;;;;;3.63;1.05;;;17.40;62.80;;;;;;6143187;23;20034;-74
2021/05/13 07:02:47;;;;;;;2.92;0.70;;;17.40;62.80;;;;;;6168749;23;20010;-74
2021/05/13 07:05:14;;;;;;;2.15;1.00;;;17.40;62.80;;;;;;6158917;23;20024;-74
2021/05/13 07:07:40;;;;;;;2.28;0.80;;;17.40;63.40;;;;;;6143639;23;20013;-74
2021/05/13 07:10:07;;;;;;;2.70;0.80;;;17.40;62.80;;;;;;6169581;23;20020;-75
2021/05/13 07:12:33;;;;;;;2.40;0.65;;;17.40;62.80;;;;;;6159675;23;20334;-74
2021/05/13 07:15:02;;;;;;;3.15;0.98;;;17.50;62.80;;;;;;6168464;23;20054;-74
2021/05/13 07:17:29;;;;;;;3.75;0.80;;;17.50;62.80;;;;;;6143731;23;20372;-74
2021/05/13 07:19:57;;;;;;;3.00;0.75;;;17.40;62.80;;;;;;6168457;23;20327;-74
2021/05/13 07:22:23;;;;;;;3.15;0.63;;;17.50;62.80;;;;;;6168630;23;20017;-75
2021/05/13 07:24:49;;;;;;;3.25;1.10;;;17.40;62.80;;;;;;6143811;23;20411;-75
2021/05/13 07:27:20;;;;;;;3.67;1.10;;;17.50;62.80;;;;;;6159128;23;20048;-74
2021/05/13 07:29:48;;;;;;;3.15;0.85;;;17.50;62.80;;;;;;6159781;23;20024;-74
2021/05/13 07:32:14;;;;;;;3.35;1.00;;;17.50;62.80;;;;;;6159750;23;20319;-74
2021/05/13 07:34:40;;;;;;;1.88;0.70;;;17.60;62.90;;;;;;6169159;23;20053;-74
2021/05/13 07:37:06;;;;;;;2.70;0.50;;;17.60;62.90;;;;;;6159338;23;20079;-74
2021/05/13 07:39:32;;;;;;;2.65;0.95;;;17.60;62.90;;;;;;6169274;23;20010;-74
2021/05/13 07:41:58;;;;;;;3.33;1.27;;;17.60;62.90;;;;;;6158961;23;20014;-74
2021/05/13 07:44:25;;;;;;;2.83;0.68;;;17.50;62.90;;;;;;6158483;23;20111;-74
2021/05/13 07:46:51;;;;;;;2.08;0.70;;;17.60;63.00;;;;;;6168603;23;20009;-74
2021/05/13 07:49:17;;;;;;;2.47;1.00;;;17.60;63.00;;;;;;6134053;23;20036;-75
2021/05/13 07:51:44;;;;;;;2.63;1.00;;;17.60;63.00;;;;;;6164728;23;20009;-74
2021/05/13 07:54:11;;;;;;;3.20;0.90;;;17.60;63.10;;;;;;6169686;23;20075;-74
2021/05/13 07:56:36;;;;;;;3.75;1.23;;;17.60;63.20;;;;;;6168288;23;20079;-74
2021/05/13 07:59:02;;;;;;;3.03;0.80;;;17.60;63.20;;;;;;6168333;23;20401;-75
2021/05/13 08:01:28;;;;;;;4.00;1.08;;;17.60;63.20;;;;;;6158786;23;20391;-74
2021/05/13 08:03:54;;;;;;;2.97;0.90;;;17.60;63.30;;;;;;6158535;23;20009;-75
2021/05/13 08:06:20;;;;;;;3.63;0.93;;;17.60;63.30;;;;;;6168270;23;20032;-75
2021/05/13 08:08:46;;;;;;;1.88;0.65;;;17.70;63.40;;;;;;6168349;23;20009;-74
2021/05/13 08:11:11;;;;;;;4.22;1.10;;;17.70;63.40;;;;;;6159330;23;20017;-74
2021/05/13 08:13:37;;;;;;;2.10;0.88;;;17.70;63.50;;;;;;6158429;23;20439;-74
2021/05/13 08:16:03;;;;;;;2.03;0.80;;;17.70;63.50;;;;;;6118049;23;20014;-74
2021/05/13 08:18:29;;;;;;;3.22;1.02;;;17.70;63.60;;;;;;6158513;23;20151;-74
2021/05/13 08:20:55;;;;;;;2.88;0.70;;;17.60;63.50;;;;;;6168238;23;20036;-74
2021/05/13 08:23:21;;;;;;;2.72;0.80;;;17.70;63.60;;;;;;6168376;23;20017;-74
2021/05/13 08:25:47;;;;;;;2.55;0.90;;;17.70;63.70;;;;;;6168389;23;20098;-74
2021/05/13 08:28:12;;;;;;;3.15;1.05;;;17.70;63.70;;;;;;6158280;23;20281;-75
2021/05/13 08:30:38;;;;;;;4.15;0.80;;;17.70;63.70;;;;;;6168182;23;20144;-74
2021/05/13 08:33:04;;;;;;;2.88;0.90;;;17.70;63.70;;;;;;6168674;23;20019;-74
2021/05/13 08:35:30;;;;;;;3.30;0.98;;;17.70;63.70;;;;;;6168108;23;20036;-75
2021/05/13 08:37:56;;;;;;;2.35;0.60;;;17.70;63.70;;;;;;6168752;23;20068;-74
2021/05/13 08:40:22;;;;;;;2.17;0.70;;;17.80;63.80;;;;;;6168161;23;20017;-75
2021/05/13 08:42:47;;;;;;;2.35;0.82;;;17.70;63.80;;;;;;6166942;23;20025;-74
2021/05/13 08:45:13;;;;;;;3.15;0.90;;;17.70;63.80;;;;;;6167977;23;20048;-75
2021/05/13 08:47:44;;;;;;;3.05;0.80;;;17.70;63.80;;;;;;6168690;23;20025;-75
2021/05/13 08:50:15;;;;;;;2.17;0.80;;;17.80;63.90;;;;;;6158612;23;20041;-74
2021/05/13 08:52:41;;;;;;;1.55;0.55;;;17.80;63.90;;;;;;6160127;23;20323;-74
2021/05/13 08:55:08;;;;;;;2.95;0.80;;;17.80;63.90;;;;;;6167946;23;20017;-75
2021/05/13 08:57:34;;;;;;;2.35;0.65;;;17.80;63.80;;;;;;6167880;23;20020;-74
2021/05/13 09:00:00;;;;;;;3.30;0.90;;;17.80;63.90;;;;;;6167907;23;20009;-74
2021/05/13 09:02:29;;;;;;;3.72;0.80;;;17.80;63.90;;;;;;6168305;23;20006;-75
2021/05/13 09:04:58;;;;;;;2.95;0.70;;;17.80;63.90;;;;;;6167803;23;20013;-75
2021/05/13 09:07:29;;;;;;;1.48;0.70;;;17.80;63.90;;;;;;6168563;23;20085;-75
2021/05/13 09:10:12;;;;;;;2.05;0.60;;;17.80;63.90;;;;;;6168597;23;20050;-75
2021/05/13 09:12:45;;;;;;;3.20;0.95;;;17.80;63.90;;;;;;6157915;23;20013;-75
2021/05/13 09:15:18;;;;;;;2.20;0.75;;;17.80;63.90;;;;;;6168226;23;20009;-75
2021/05/13 09:17:47;;;;;;;4.07;0.97;;;17.80;63.90;;;;;;6168440;23;20033;-75
2021/05/13 09:20:23;;;;;;;2.20;0.68;;;17.80;63.90;;;;;;6169671;23;20088;-75
2021/05/13 09:22:49;;;;;;;2.08;0.60;;;17.80;63.90;;;;;;6169792;23;20087;-75
2021/05/13 09:25:18;;;;;;;2.35;0.52;;;17.80;63.90;;;;;;6160332;23;20014;-74
2021/05/13 09:27:45;;;;;;;3.03;0.70;;;17.90;64.00;;;;;;6169995;23;20020;-74
2021/05/13 09:30:21;;;;;;;2.42;0.77;;;17.80;63.90;;;;;;6160306;23;20069;-75
2021/05/13 09:32:54;;;;;;;1.80;0.45;;;17.90;63.90;;;;;;6169906;23;20016;-74
2021/05/13 09:35:25;;;;;;;1.90;0.60;;;17.90;63.90;;;;;;6169853;23;20009;-75
2021/05/13 09:37:58;;;;;;;2.58;0.40;;;17.90;64.00;;;;;;6160266;23;20040;-75
2021/05/13 09:40:50;;;;;;;2.07;0.63;;;17.90;64.00;;;;;;6160285;23;20102;-75
2021/05/13 09:43:22;;;;;;;1.92;0.68;;;17.90;63.90;;;;;;6169574;23;20009;-75
2021/05/13 09:45:51;;;;;;;2.40;0.73;;;17.90;64.00;;;;;;6160190;23;20014;-75
2021/05/13 09:48:39;;;;;;;2.03;0.50;;;17.90;64.00;;;;;;6169691;23;20020;-75
2021/05/13 09:51:34;;;;;;;2.30;0.70;;;17.90;64.00;;;;;;6143564;23;20014;-75
2021/05/13 09:54:06;;;;;;;2.53;0.65;;;17.90;63.90;;;;;;6169149;23;20081;-75
2021/05/13 09:56:33;;;;;;;1.85;0.60;;;17.90;63.90;;;;;;6160046;23;20029;-75
2021/05/13 09:59:20;;;;;;;1.58;0.40;;;17.90;63.90;;;;;;6169650;23;20017;-75
2021/05/13 10:01:46;;;;;;;2.13;0.60;;;17.90;63.90;;;;;;6169858;23;20084;-75
2021/05/13 10:04:12;;;;;;;1.75;0.50;;;17.90;63.90;;;;;;6159588;23;20111;-76
2021/05/13 10:06:37;;;;;;;2.08;0.68;;;17.90;63.90;;;;;;6169860;23;20287;-75
2021/05/13 10:09:04;;;;;;;1.50;0.60;;;17.90;63.90;;;;;;6169579;23;20422;-75
2021/05/13 10:11:30;;;;;;;2.38;0.77;;;17.90;63.90;;;;;;6169489;23;20080;-75
2021/05/13 10:13:56;;;;;;;0.93;0.50;;;17.90;63.90;;;;;;6169847;23;20370;-75
2021/05/13 10:16:24;;;;;;;3.50;0.73;;;17.90;63.90;;;;;;6169739;23;20013;-75
2021/05/13 10:19:21;;;;;;;1.50;0.60;;;17.90;63.90;;;;;;6169202;23;20013;-75
2021/05/13 10:21:48;;;;;;;1.85;0.60;;;18.00;63.90;;;;;;6169501;23;20292;-75
2021/05/13 10:24:14;;;;;;;1.20;0.65;;;18.00;63.90;;;;;;6169253;23;20009;-75
2021/05/13 10:26:43;;;;;;;2.35;0.50;;;17.90;63.80;;;;;;6169600;23;20024;-75
2021/05/13 10:29:21;;;;;;;2.33;0.50;;;18.00;63.90;;;;;;6168880;23;20032;-75
2021/05/13 10:32:12;;;;;;;1.45;0.45;;;18.00;63.80;;;;;;6169745;23;20403;-75
2021/05/13 10:34:41;;;;;;;1.42;0.57;;;18.00;63.90;;;;;;6169248;23;20166;-75
2021/05/13 10:37:40;;;;;;;0.82;0.30;;;18.00;63.90;;;;;;6169171;23;20041;-75
2021/05/13 10:40:14;;;;;;;2.50;0.60;;;18.00;63.80;;;;;;6169718;23;20010;-75
2021/05/13 10:42:41;;;;;;;1.73;0.50;;;18.00;63.90;;;;;;6169679;23;20044;-75
2021/05/13 10:45:25;;;;;;;1.90;0.55;;;18.00;63.90;;;;;;6169801;23;20048;-75
2021/05/13 10:48:25;;;;;;;1.67;0.65;;;18.00;63.80;;;;;;6169123;23;20344;-75
2021/05/13 10:51:03;;;;;;;1.70;0.85;;;18.00;63.80;;;;;;6153316;23;20056;-75
2021/05/13 10:53:35;;;;;;;1.67;0.40;;;18.00;63.80;;;;;;6158559;23;20029;-75
2021/05/13 10:56:30;;;;;;;1.48;0.43;;;18.00;63.80;;;;;;6169122;23;20087;-75
2021/05/13 10:59:07;;;;;;;1.60;0.47;;;18.00;63.80;;;;;;6168977;23;20415;-75
2021/05/13 11:01:43;;;;;;;3.20;0.60;;;18.00;63.80;;;;;;6169359;23;20020;-75
2021/05/13 11:04:34;;;;;;;1.02;0.45;;;18.00;63.80;;;;;;6168470;23;20075;-75
2021/05/13 11:07:25;;;;;;;1.08;0.40;;;18.00;63.70;;;;;;6143063;23;20025;-75
2021/05/13 11:09:52;;;;;;;2.10;0.55;;;18.00;63.80;;;;;;6157913;23;20013;-75
2021/05/13 11:12:21;;;;;;;1.40;0.70;;;18.00;63.70;;;;;;6159080;23;20037;-74
2021/05/13 11:17:50;;;;;;;2.97;0.60;;;18.00;63.70;;;;;;6168740;23;20010;-75
2021/05/13 11:20:30;;;;;;;3.33;0.40;;;18.00;63.70;;;;;;6168593;23;20009;-75
2021/05/13 11:23:08;;;;;;;5.35;0.88;;;18.00;63.80;;;;;;6168892;23;20056;-75
2021/05/13 11:25:52;;;;;;;5.97;0.50;;;18.00;63.80;;;;;;6168444;23;20037;-76
2021/05/13 11:28:21;;;;;;;2.38;0.45;;;18.00;63.90;;;;;;6131696;23;20017;-85
2021/05/13 11:30:48;;;;;;;1.80;0.43;;;18.00;64.00;;;;;;6158864;23;20427;-74
2021/05/13 11:33:14;;;;;;;2.58;0.65;;;18.00;64.10;;;;;;6168305;23;20009;-73
2021/05/13 11:35:40;;;;;;;5.50;0.80;;;18.00;64.10;;;;;;6168708;23;20021;-73
2021/05/13 11:38:22;;;;;;;3.03;0.50;;;18.00;64.20;;;;;;6168606;23;20024;-77
2021/05/13 11:40:50;;;;;;;1.95;0.55;;;18.00;64.10;;;;;;6168149;23;20013;-76
2021/05/13 11:43:23;;;;;;;3.75;0.75;;;18.00;64.20;;;;;;6168061;23;20395;-76
2021/05/13 11:45:52;;;;;;;2.37;0.60;;;18.10;64.10;;;;;;6168755;23;20029;-76
2021/05/13 11:48:32;;;;;;;3.45;0.73;;;18.00;64.00;;;;;;6168749;23;20241;-77
2021/05/13 11:51:04;;;;;;;4.63;0.80;;;18.00;63.90;;;;;;6168571;23;20072;-77
2021/05/13 11:53:31;;;;;;;5.55;0.57;;;18.00;63.90;;;;;;6158107;23;20028;-77
2021/05/13 11:55:57;;;;;;;2.35;0.55;;;18.00;63.90;;;;;;6168750;23;20013;-76
2021/05/13 11:58:51;;;;;;;5.95;0.52;;;18.10;63.90;;;;;;6168447;23;20031;-77
2021/05/13 12:01:26;;;;;;;3.25;0.60;;;18.00;63.70;;;;;;6168413;23;20077;-76
2021/05/13 12:04:06;;;;;;;2.70;0.45;;;18.10;63.80;;;;;;6168377;23;20437;-76
2021/05/13 12:07:00;;;;;;;2.35;0.80;;;18.10;63.80;;;;;;6168995;23;20079;-76
2021/05/13 12:09:27;;;;;;;;;;;18.10;63.70;;;;;;6168812;23;20013;-75
2021/05/13 12:11:54;;;;;;;2.53;0.32;;;18.10;63.70;;;;;;6167957;23;19912;-76
2021/05/13 12:14:26;;;;;;;3.08;0.57;;;18.10;63.80;;;;;;6169026;23;20025;-77
2021/05/13 12:16:54;;;;;;;1.63;0.93;;;18.10;63.70;;;;;;6168404;23;20101;-77
2021/05/13 12:19:20;;;;;;;1.75;0.40;;;18.10;63.70;;;;;;6157985;23;20071;-77
2021/05/13 12:21:55;;;;;;;3.17;0.75;;;18.10;63.60;;;;;;6142616;23;20014;-77
2021/05/13 12:24:35;;;;;;;1.13;0.32;;;18.10;63.50;;;;;;6141437;23;20021;-80
2021/05/13 12:27:01;;;;;;;2.15;0.30;;;18.10;64.00;;;;;;6168536;23;20013;-77
2021/05/13 12:29:28;;;;;;;3.90;0.70;;;18.10;63.40;;;;;;6168072;23;20009;-77
2021/05/13 12:32:06;;;;;;;4.05;1.13;;;18.10;63.30;;;;;;6167715;23;20013;-78
2021/05/13 12:34:42;;;;;;;4.72;0.80;;;18.10;63.30;;;;;;6168754;23;20006;-78
2021/05/13 12:37:19;;;;;;;4.30;0.63;;;18.10;64.00;;;;;;6157495;23;20018;-79
2021/05/13 12:39:45;;;;;;;4.50;0.60;;;18.10;63.40;;;;;;6168209;23;20009;-77
2021/05/13 12:42:34;;;;;;;4.93;0.73;;;18.10;63.40;;;;;;6166450;23;20076;-78
2021/05/13 12:45:14;;;;;;;1.63;0.52;;;18.10;63.30;;;;;;6163274;23;20017;-81
2021/05/13 12:47:55;;;;;;;4.10;0.70;;;18.10;63.30;;;;;;6142310;23;20089;-81
2021/05/13 12:50:26;;;;;;;1.77;0.75;;;18.10;63.30;;;;;;6167773;23;20016;-81
2021/05/13 12:53:14;;;;;;;4.82;0.85;;;18.20;63.30;;;;;;6160469;23;20418;-80
2021/05/13 12:55:48;;;;;;;2.17;0.45;;;18.10;63.20;;;;;;6167598;23;20014;-79
2021/05/13 12:58:20;;;;;;;4.15;0.40;;;18.10;63.10;;;;;;6163761;23;20021;-79
2021/05/13 13:01:07;;;;;;;4.43;0.60;;;18.10;63.20;;;;;;6168427;23;20453;-79
2021/05/13 13:03:38;;;;;;;2.47;0.95;;;18.10;63.00;;;;;;6167839;23;20010;-80
2021/05/13 13:06:14;;;;;;;2.63;0.55;;;18.10;63.10;;;;;;6168265;23;20009;-82
2021/05/13 13:08:50;;;;;;;2.65;0.70;;;18.10;63.10;;;;;;6142370;23;20013;-79
2021/05/13 13:11:37;;;;;;;2.10;0.55;;;18.10;63.00;;;;;;6168256;23;20272;-79
2021/05/13 13:14:30;;;;;;;2.08;0.47;;;18.10;63.00;;;;;;6167612;23;20013;-80
2021/05/13 13:17:24;;;;;;;1.35;0.38;;;18.10;62.90;;;;;;6167885;23;20023;-79